Terminal Aerodrome Forecast
Issued by NWS

Home | Current Version | Previous Version | Text Only | Print | Product List | Glossary On
Versions: 1 2 3 4 5 6 7 8 9 10 11 12 13 14
000
FTAK31 PAJN 270500
TAFAKT
TAF
PAKT 270520Z 2706/2806 16005KT P6SM -RA SCT015 OVC025
      TEMPO 2706/2708 4SM RA BR SCT006 BKN015
     FM270800 31010KT 4SM -SHRA SCT008 OVC015
     FM271200 31008KT P6SM SCT008 BKN030
     FM272000 31006KT P6SM FEW010 SCT050
      AMD LTD TO CLD VIS AND WIND 2706/2715=

USA.gov is the U.S. government's official web portal to all federal, state and local government web resources and services.